sensor_id;sensor_type;location;lat;lon;timestamp;P1;durP1;ratioP1;P2;durP2;ratioP2
55663;SDS011;41540;57.880;12.164;2022-12-22T00:04:55;7.97;;;3.13;;
55663;SDS011;41540;57.880;12.164;2022-12-22T00:15:14;8.05;;;3.22;;
55663;SDS011;41540;57.880;12.164;2022-12-22T00:25:34;17.80;;;4.70;;
55663;SDS011;41540;57.880;12.164;2022-12-22T00:35:53;10.90;;;5.82;;
55663;SDS011;41540;57.880;12.164;2022-12-22T00:46:13;19.95;;;3.95;;
55663;SDS011;41540;57.880;12.164;2022-12-22T00:56:33;20.25;;;4.07;;
55663;SDS011;41540;57.880;12.164;2022-12-22T01:06:52;18.48;;;5.80;;
55663;SDS011;41540;57.880;12.164;2022-12-22T01:17:11;17.65;;;5.80;;
55663;SDS011;41540;57.880;12.164;2022-12-22T01:27:30;25.33;;;7.28;;
55663;SDS011;41540;57.880;12.164;2022-12-22T01:37:49;25.25;;;3.85;;
55663;SDS011;41540;57.880;12.164;2022-12-22T01:48:18;10.38;;;6.10;;
55663;SDS011;41540;57.880;12.164;2022-12-22T01:58:39;16.38;;;6.72;;
55663;SDS011;41540;57.880;12.164;2022-12-22T02:09:36;13.23;;;5.63;;
55663;SDS011;41540;57.880;12.164;2022-12-22T02:30:04;30.70;;;7.28;;
55663;SDS011;41540;57.880;12.164;2022-12-22T02:40:35;12.63;;;5.13;;
55663;SDS011;41540;57.880;12.164;2022-12-22T02:51:01;32.92;;;8.18;;
55663;SDS011;41540;57.880;12.164;2022-12-22T03:01:22;27.67;;;5.43;;
55663;SDS011;41540;57.880;12.164;2022-12-22T03:11:41;17.30;;;5.60;;
55663;SDS011;41540;57.880;12.164;2022-12-22T03:22:00;38.85;;;7.05;;
55663;SDS011;41540;57.880;12.164;2022-12-22T03:32:19;28.92;;;6.78;;
55663;SDS011;41540;57.880;12.164;2022-12-22T03:42:19;13.18;;;4.57;;
55663;SDS011;41540;57.880;12.164;2022-12-22T03:52:38;26.73;;;6.22;;
55663;SDS011;41540;57.880;12.164;2022-12-22T04:02:39;42.67;;;8.27;;
55663;SDS011;41540;57.880;12.164;2022-12-22T04:12:39;25.55;;;6.47;;
55663;SDS011;41540;57.880;12.164;2022-12-22T04:22:55;20.23;;;6.82;;
55663;SDS011;41540;57.880;12.164;2022-12-22T04:32:55;25.98;;;6.13;;
55663;SDS011;41540;57.880;12.164;2022-12-22T04:42:56;25.13;;;8.55;;
55663;SDS011;41540;57.880;12.164;2022-12-22T04:52:56;25.13;;;5.47;;
55663;SDS011;41540;57.880;12.164;2022-12-22T05:02:56;11.20;;;4.85;;
55663;SDS011;41540;57.880;12.164;2022-12-22T05:12:56;38.85;;;7.43;;
55663;SDS011;41540;57.880;12.164;2022-12-22T05:22:57;36.10;;;8.95;;
55663;SDS011;41540;57.880;12.164;2022-12-22T05:32:57;16.08;;;6.22;;
55663;SDS011;41540;57.880;12.164;2022-12-22T05:42:57;13.90;;;7.35;;
55663;SDS011;41540;57.880;12.164;2022-12-22T05:52:58;21.45;;;8.20;;
55663;SDS011;41540;57.880;12.164;2022-12-22T06:02:58;23.00;;;9.35;;
55663;SDS011;41540;57.880;12.164;2022-12-22T06:12:58;26.48;;;9.48;;
55663;SDS011;41540;57.880;12.164;2022-12-22T06:22:59;24.52;;;9.15;;
55663;SDS011;41540;57.880;12.164;2022-12-22T06:32:59;33.05;;;10.20;;
55663;SDS011;41540;57.880;12.164;2022-12-22T06:42:59;28.02;;;9.82;;
55663;SDS011;41540;57.880;12.164;2022-12-22T06:53:09;25.70;;;9.27;;
55663;SDS011;41540;57.880;12.164;2022-12-22T07:03:09;21.97;;;8.70;;
55663;SDS011;41540;57.880;12.164;2022-12-22T07:13:10;35.65;;;10.48;;
55663;SDS011;41540;57.880;12.164;2022-12-22T07:23:19;30.65;;;10.98;;
55663;SDS011;41540;57.880;12.164;2022-12-22T07:33:19;18.00;;;6.80;;
55663;SDS011;41540;57.880;12.164;2022-12-22T07:43:20;18.60;;;8.27;;
55663;SDS011;41540;57.880;12.164;2022-12-22T07:53:20;16.85;;;7.20;;
55663;SDS011;41540;57.880;12.164;2022-12-22T08:03:20;26.55;;;8.05;;
55663;SDS011;41540;57.880;12.164;2022-12-22T08:13:20;27.15;;;8.38;;
55663;SDS011;41540;57.880;12.164;2022-12-22T08:23:21;17.35;;;7.90;;
55663;SDS011;41540;57.880;12.164;2022-12-22T08:33:21;15.25;;;6.32;;
55663;SDS011;41540;57.880;12.164;2022-12-22T08:43:21;15.30;;;6.63;;
55663;SDS011;41540;57.880;12.164;2022-12-22T08:53:25;22.50;;;8.57;;
55663;SDS011;41540;57.880;12.164;2022-12-22T09:03:25;24.92;;;6.53;;
55663;SDS011;41540;57.880;12.164;2022-12-22T09:13:25;19.48;;;8.45;;
55663;SDS011;41540;57.880;12.164;2022-12-22T09:23:26;14.43;;;7.88;;
55663;SDS011;41540;57.880;12.164;2022-12-22T09:33:26;42.50;;;7.07;;
55663;SDS011;41540;57.880;12.164;2022-12-22T09:43:27;13.82;;;6.80;;
55663;SDS011;41540;57.880;12.164;2022-12-22T09:53:28;16.10;;;6.68;;
55663;SDS011;41540;57.880;12.164;2022-12-22T10:03:32;18.10;;;9.48;;
55663;SDS011;41540;57.880;12.164;2022-12-22T10:13:33;16.77;;;8.67;;
55663;SDS011;41540;57.880;12.164;2022-12-22T10:23:34;22.33;;;8.25;;
55663;SDS011;41540;57.880;12.164;2022-12-22T10:33:37;22.47;;;10.47;;
55663;SDS011;41540;57.880;12.164;2022-12-22T10:43:39;21.95;;;9.18;;
55663;SDS011;41540;57.880;12.164;2022-12-22T10:53:46;21.00;;;7.03;;
55663;SDS011;41540;57.880;12.164;2022-12-22T11:03:47;25.95;;;9.38;;
55663;SDS011;41540;57.880;12.164;2022-12-22T11:44:36;29.40;;;8.90;;
55663;SDS011;41540;57.880;12.164;2022-12-22T12:25:04;18.75;;;7.38;;
55663;SDS011;41540;57.880;12.164;2022-12-22T12:45:41;26.98;;;8.40;;
55663;SDS011;41540;57.880;12.164;2022-12-22T13:05:50;30.42;;;7.47;;
55663;SDS011;41540;57.880;12.164;2022-12-22T13:26:04;21.80;;;7.47;;
55663;SDS011;41540;57.880;12.164;2022-12-22T13:46:05;31.05;;;9.45;;
55663;SDS011;41540;57.880;12.164;2022-12-22T13:56:11;22.25;;;9.13;;
55663;SDS011;41540;57.880;12.164;2022-12-22T14:06:26;22.67;;;7.65;;
55663;SDS011;41540;57.880;12.164;2022-12-22T14:16:26;36.07;;;11.67;;
55663;SDS011;41540;57.880;12.164;2022-12-22T14:26:27;21.90;;;6.45;;
55663;SDS011;41540;57.880;12.164;2022-12-22T14:36:33;16.17;;;6.97;;
55663;SDS011;41540;57.880;12.164;2022-12-22T14:46:34;36.78;;;9.15;;
55663;SDS011;41540;57.880;12.164;2022-12-22T14:56:34;22.02;;;8.38;;
55663;SDS011;41540;57.880;12.164;2022-12-22T15:06:45;30.70;;;6.10;;
55663;SDS011;41540;57.880;12.164;2022-12-22T15:16:46;31.50;;;6.90;;
55663;SDS011;41540;57.880;12.164;2022-12-22T15:26:47;32.20;;;7.93;;
55663;SDS011;41540;57.880;12.164;2022-12-22T15:36:47;13.05;;;3.92;;
55663;SDS011;41540;57.880;12.164;2022-12-22T15:46:54;19.15;;;4.05;;
55663;SDS011;41540;57.880;12.164;2022-12-22T15:56:55;22.90;;;6.63;;
55663;SDS011;41540;57.880;12.164;2022-12-22T16:06:55;15.60;;;6.28;;
55663;SDS011;41540;57.880;12.164;2022-12-22T16:16:57;19.08;;;5.35;;
55663;SDS011;41540;57.880;12.164;2022-12-22T16:26:57;24.17;;;6.72;;
55663;SDS011;41540;57.880;12.164;2022-12-22T16:36:59;13.60;;;4.80;;
55663;SDS011;41540;57.880;12.164;2022-12-22T16:46:59;16.48;;;5.63;;
55663;SDS011;41540;57.880;12.164;2022-12-22T16:57:01;23.10;;;6.22;;
55663;SDS011;41540;57.880;12.164;2022-12-22T17:07:02;24.60;;;6.13;;
55663;SDS011;41540;57.880;12.164;2022-12-22T17:17:02;23.02;;;8.15;;
55663;SDS011;41540;57.880;12.164;2022-12-22T17:27:03;20.40;;;4.82;;
55663;SDS011;41540;57.880;12.164;2022-12-22T17:37:07;18.25;;;5.78;;
55663;SDS011;41540;57.880;12.164;2022-12-22T17:47:12;12.55;;;4.07;;
55663;SDS011;41540;57.880;12.164;2022-12-22T17:57:21;17.67;;;4.40;;
55663;SDS011;41540;57.880;12.164;2022-12-22T18:07:22;17.98;;;4.22;;
55663;SDS011;41540;57.880;12.164;2022-12-22T18:17:24;31.55;;;8.15;;
55663;SDS011;41540;57.880;12.164;2022-12-22T18:27:24;33.67;;;9.30;;
55663;SDS011;41540;57.880;12.164;2022-12-22T18:37:25;29.75;;;6.53;;
55663;SDS011;41540;57.880;12.164;2022-12-22T18:47:25;16.92;;;6.55;;
55663;SDS011;41540;57.880;12.164;2022-12-22T18:57:25;33.53;;;5.68;;
55663;SDS011;41540;57.880;12.164;2022-12-22T19:07:25;14.27;;;7.13;;
55663;SDS011;41540;57.880;12.164;2022-12-22T19:17:26;27.48;;;6.50;;
55663;SDS011;41540;57.880;12.164;2022-12-22T19:27:27;15.63;;;4.65;;
55663;SDS011;41540;57.880;12.164;2022-12-22T19:37:27;18.90;;;4.22;;
55663;SDS011;41540;57.880;12.164;2022-12-22T19:47:28;17.38;;;5.03;;
55663;SDS011;41540;57.880;12.164;2022-12-22T19:57:29;19.00;;;4.82;;
55663;SDS011;41540;57.880;12.164;2022-12-22T20:07:29;18.30;;;2.92;;
55663;SDS011;41540;57.880;12.164;2022-12-22T20:17:31;9.98;;;3.45;;
55663;SDS011;41540;57.880;12.164;2022-12-22T20:27:32;8.52;;;3.70;;
55663;SDS011;41540;57.880;12.164;2022-12-22T20:37:33;6.20;;;2.70;;
55663;SDS011;41540;57.880;12.164;2022-12-22T20:47:33;15.65;;;3.50;;
55663;SDS011;41540;57.880;12.164;2022-12-22T20:57:34;6.55;;;1.98;;
55663;SDS011;41540;57.880;12.164;2022-12-22T21:07:35;5.03;;;1.65;;
55663;SDS011;41540;57.880;12.164;2022-12-22T21:17:35;5.05;;;1.55;;
55663;SDS011;41540;57.880;12.164;2022-12-22T21:27:35;7.70;;;1.90;;
55663;SDS011;41540;57.880;12.164;2022-12-22T21:37:36;7.53;;;1.27;;
55663;SDS011;41540;57.880;12.164;2022-12-22T21:47:36;3.97;;;1.08;;
55663;SDS011;41540;57.880;12.164;2022-12-22T21:57:37;4.18;;;0.98;;
55663;SDS011;41540;57.880;12.164;2022-12-22T22:07:37;4.70;;;1.33;;
55663;SDS011;41540;57.880;12.164;2022-12-22T22:17:37;2.15;;;1.38;;
55663;SDS011;41540;57.880;12.164;2022-12-22T22:27:38;5.47;;;1.60;;
55663;SDS011;41540;57.880;12.164;2022-12-22T22:37:38;2.42;;;1.00;;
55663;SDS011;41540;57.880;12.164;2022-12-22T22:47:39;4.15;;;0.73;;
55663;SDS011;41540;57.880;12.164;2022-12-22T22:57:39;1.40;;;0.80;;
55663;SDS011;41540;57.880;12.164;2022-12-22T23:07:40;2.17;;;1.17;;
55663;SDS011;41540;57.880;12.164;2022-12-22T23:17:40;6.72;;;2.97;;
55663;SDS011;41540;57.880;12.164;2022-12-22T23:27:40;7.57;;;2.30;;
55663;SDS011;41540;57.880;12.164;2022-12-22T23:37:41;2.92;;;1.92;;
55663;SDS011;41540;57.880;12.164;2022-12-22T23:47:41;8.68;;;2.40;;
55663;SDS011;41540;57.880;12.164;2022-12-22T23:57:41;5.82;;;2.08;;
